createdAt,value
2018-03-18T11:41:37.298Z,91.80
2018-03-18T11:44:04.062Z,92.50
2018-03-18T11:46:31.485Z,92.20
2018-03-18T11:49:24.188Z,91.60
2018-03-18T11:51:50.797Z,91.60
2018-03-18T11:54:18.217Z,92.20
2018-03-18T11:56:44.923Z,92.30
2018-03-18T11:59:12.616Z,92.00
2018-03-18T12:01:52.155Z,92.00
2018-03-18T12:04:19.842Z,91.60
2018-03-18T12:06:46.630Z,91.50
2018-03-18T12:09:13.363Z,90.20
2018-03-18T12:11:40.094Z,89.50
2018-03-18T12:14:06.842Z,88.60
2018-03-18T12:16:33.481Z,87.50
2018-03-18T12:19:00.891Z,88.50
2018-03-18T12:21:27.681Z,88.60
2018-03-18T12:23:54.437Z,86.40
2018-03-18T12:26:21.395Z,86.40
2018-03-18T12:28:48.041Z,87.20
2018-03-18T12:31:15.711Z,86.00
2018-03-18T12:33:42.615Z,87.50
2018-03-18T12:36:09.604Z,87.10
2018-03-18T12:38:37.474Z,88.90
2018-03-18T12:41:05.943Z,87.60
2018-03-18T12:43:33.117Z,88.60
2018-03-18T12:46:01.143Z,88.00
2018-03-18T12:48:29.169Z,87.30
2018-03-18T12:50:58.069Z,88.00
2018-03-18T12:53:27.147Z,88.90
2018-03-18T12:55:55.203Z,88.70
2018-03-18T12:58:23.012Z,89.40
2018-03-18T13:00:51.066Z,87.00
2018-03-18T13:03:19.174Z,88.60
2018-03-18T13:05:47.298Z,87.70
2018-03-18T13:08:15.482Z,89.60
2018-03-18T13:10:44.417Z,85.00
2018-03-18T13:13:13.364Z,86.20
2018-03-18T13:15:41.702Z,86.10
2018-03-18T13:18:10.010Z,84.60
2018-03-18T13:20:38.417Z,84.60
2018-03-18T13:23:06.684Z,85.90
2018-03-18T13:25:35.196Z,84.50
2018-03-18T13:28:03.397Z,84.30
2018-03-18T13:30:31.438Z,84.50
2018-03-18T13:32:58.162Z,84.20
2018-03-18T13:35:25.875Z,83.90
2018-03-18T13:37:54.328Z,83.70
2018-03-18T13:40:23.250Z,84.80
2018-03-18T13:42:51.363Z,84.60
2018-03-18T13:45:19.618Z,86.10
2018-03-18T13:47:48.665Z,84.60
2018-03-18T13:50:17.196Z,84.40
2018-03-18T13:52:45.654Z,85.40
2018-03-18T13:55:13.864Z,85.10
2018-03-18T13:57:42.564Z,82.40
2018-03-18T14:00:10.356Z,81.70
2018-03-18T14:02:37.986Z,80.70
2018-03-18T14:05:05.983Z,84.10
2018-03-18T14:07:35.057Z,82.50
2018-03-18T14:10:10.006Z,82.80
2018-03-18T14:12:38.325Z,80.40
2018-03-18T14:15:06.207Z,79.70
2018-03-18T14:17:34.576Z,80.90
2018-03-18T14:20:02.532Z,83.20
2018-03-18T14:22:30.310Z,78.80
2018-03-18T14:24:58.513Z,79.60
2018-03-18T14:27:26.615Z,80.60
2018-03-18T14:29:54.662Z,80.10
2018-03-18T14:32:23.233Z,81.30
2018-03-18T14:34:51.237Z,81.30
2018-03-18T14:37:19.424Z,79.80
2018-03-18T14:39:47.587Z,80.40
2018-03-18T14:42:15.626Z,81.90
2018-03-18T14:44:43.787Z,81.20
2018-03-18T14:47:12.539Z,81.80
2018-03-18T14:49:40.687Z,82.30
2018-03-18T14:52:08.857Z,80.30
2018-03-18T14:54:37.035Z,83.10
2018-03-18T14:57:04.832Z,82.30
2018-03-18T14:59:50.254Z,83.80
2018-03-18T15:02:20.247Z,83.40
2018-03-18T15:04:49.215Z,81.90
2018-03-18T15:07:17.451Z,81.70
2018-03-18T15:09:46.417Z,83.10
2018-03-18T15:12:14.557Z,83.00
2018-03-18T15:15:15.001Z,85.50
2018-03-18T15:17:43.776Z,86.40
2018-03-18T15:20:11.957Z,86.20
2018-03-18T15:22:39.429Z,85.10
2018-03-18T15:25:06.607Z,84.30
2018-03-18T15:27:34.216Z,86.10
2018-03-18T15:30:01.427Z,83.70
2018-03-18T15:32:29.688Z,84.10
2018-03-18T15:34:57.977Z,83.80
2018-03-18T15:37:25.255Z,85.30
2018-03-18T15:39:54.934Z,84.60
2018-03-18T15:42:23.576Z,81.90
2018-03-18T15:44:51.766Z,81.90
2018-03-18T15:47:18.599Z,85.30
2018-03-18T15:49:47.973Z,82.00
2018-03-18T15:52:14.798Z,81.80
2018-03-18T15:54:41.959Z,83.50
2018-03-18T15:57:09.236Z,83.80
2018-03-18T15:59:36.413Z,82.80
2018-03-18T16:02:03.445Z,83.00
2018-03-18T16:04:30.945Z,82.40
2018-03-18T16:06:58.950Z,82.90
2018-03-18T16:09:26.109Z,84.10
2018-03-18T16:11:52.979Z,83.10
2018-03-18T16:14:20.781Z,84.20
2018-03-18T16:16:49.786Z,82.90
2018-03-18T16:19:17.855Z,82.70
2018-03-18T16:21:46.689Z,82.90
2018-03-18T16:24:14.398Z,82.60
2018-03-18T16:26:42.728Z,81.40
2018-03-18T16:29:29.194Z,81.20
2018-03-18T16:31:55.862Z,81.20
2018-03-18T16:34:23.149Z,81.90
2018-03-18T16:36:49.824Z,82.80
2018-03-18T16:39:16.475Z,81.80
2018-03-18T16:42:08.033Z,81.60
2018-03-18T16:44:35.415Z,81.50
2018-03-18T16:47:02.248Z,81.80
2018-03-18T16:49:28.892Z,81.50
2018-03-18T16:51:55.487Z,78.80
2018-03-18T16:54:22.459Z,81.40
2018-03-18T16:56:49.111Z,80.70
2018-03-18T16:59:15.728Z,79.60
2018-03-18T17:01:42.388Z,79.20
2018-03-18T17:04:09.915Z,81.30
2018-03-18T17:06:37.888Z,82.80
2018-03-18T17:09:05.351Z,80.10
2018-03-18T17:11:33.158Z,80.20
2018-03-18T17:14:00.054Z,80.50
2018-03-18T17:16:27.537Z,81.00
2018-03-18T17:18:54.756Z,79.30
2018-03-18T17:21:22.857Z,78.10
2018-03-18T17:23:51.638Z,78.50
2018-03-18T17:26:19.989Z,78.40
2018-03-18T17:28:47.795Z,80.10
2018-03-18T17:31:15.939Z,82.60
2018-03-18T17:33:44.416Z,80.50
2018-03-18T17:36:12.475Z,80.80
2018-03-18T17:38:41.317Z,78.60
2018-03-18T17:41:29.033Z,78.70
2018-03-18T17:43:56.804Z,82.00
2018-03-18T17:46:42.365Z,82.60
2018-03-18T17:49:28.130Z,81.40
2018-03-18T17:52:14.762Z,81.70
2018-03-18T17:55:00.373Z,81.70
2018-03-18T17:57:40.678Z,82.60
